Domenico Grassi

Olheiro-Chefe - Virtus Entella
19 Ago 2027
Quinta-feira
Processo

Personalidade

Adaptabilidade (11) Ambição (13) Controvérsia (4) Lealdade (10) Pressão (1) Profissionalismo (8) Espírito Esportivo (8) Temperamento (3)

Perfil

Estilo de Treinamento Democrático
Licença Continental Pro
Determinação 11
Gestão de Pessoas 4
Motivação 5
Disciplina 10
Satisfação no Trabalho
94%
Fadiga
0%
Função Olheiro-Chefe
Salário 78.9K p/s
Contrato 14.03.2030

Desempenho

Comportamento Bom
Eficácia do Treinamento
43%
Desenvolvimento do Jogador
50%
Prevenção de Lesões
50%
Implementação Tática
40%

Eventos Recentes

Participou de uma reunião de recrutamento 7d atrás
Recomendou um alvo de transferência 7d atrás
Participou de uma reunião de recrutamento 14d atrás
Recomendou um alvo de transferência 14d atrás
Participou de uma reunião de recrutamento 21d atrás
Recomendou um alvo de transferência 21d atrás
Participou de uma reunião de recrutamento 28d atrás
Recomendou um alvo de transferência 28d atrás

Monitorando agora

52
Jogador Clube Status Habilidade Confiança Observado Última observação Último voto
Luca Russo Reggiana Ativo 99 / 120 51% 1 16.08.2027 -
Dion Beljo Standard Liege Relatório pronto 131 / 132 66% 1 01.06.2027 -
Adam Bakoune Ospitaletto Ativo 94 / 105 40% 2 25.01.2027 -
Jofre Torrents Ajax Ativo 108 / 137 40% 1 25.01.2027 -
Zane Albarus Cambridge United Ativo 82 / 109 40% 1 19.01.2027 -
Lorenzo Andrenacci Lumezzane Ativo 96 / 107 51% 1 11.01.2027 -
Darryl Bakola Padova Ativo 110 / 106 40% 2 03.01.2027 -
Josh King Chelsea Ativo 131 / 148 40% 1 03.01.2027 -
Andreas Trimmel Red Bull Salzburg Ativo 131 / 131 60% 1 01.01.2027 -
Amar Memić Casa Pia Ativo 127 / 128 62% 1 01.01.2027 Aprovar
Juan Giménez Celta Ativo 118 / 130 40% 2 31.12.2026 -
Christos Mouzakitis Hull City Ativo 134 / 125 40% 2 29.12.2026 -
Gorka Gorosabel Real Sociedad Ativo 103 / 116 40% 3 28.12.2026 -
Alphadjo Cissé Como Ativo 120 / 127 40% 2 26.12.2026 -
Lander Astiazarán Real Sociedad Ativo 109 / 111 40% 1 26.12.2026 -
Hakim Sulemana Medeama Ativo 102 / 116 40% 1 24.12.2026 -
Thulani Erasmus Platinum Stars Ativo 117 / 102 40% 2 22.12.2026 -
João Simões Sporting CP Ativo 137 / 131 40% 2 21.12.2026 -
Ibrahim Maza Bayer Leverkusen Ativo 154 / 151 40% 2 20.12.2026 -
Rodrigo Mora AS Roma Perdido 141 / 141 40% 3 19.12.2026 -
Giovanni Cantizano Rosario Central Ativo 119 / 126 40% 5 16.12.2026 -
Endrick Real Madrid Ativo 141 / 151 40% 2 15.12.2026 -
Christ Inao Oulaï Fiorentina Ativo 124 / 144 40% 2 12.12.2026 -
Percy Jali Free State Stars Ativo 105 / 113 40% 3 10.12.2026 -
Thulani Dala Platinum Stars Ativo 106 / 91 40% 1 08.12.2026 -
Jesús Rodríguez Como Ativo 146 / 152 40% 7 05.12.2026 -
Samuel Lucero Defensa y Justicia Ativo 111 / 127 40% 2 04.12.2026 -
Kutlwano Letlhaku Ajax Cape Town Ativo 105 / 123 40% 2 19.11.2026 -
Kazunari Kita Real Sociedad Ativo 92 / 95 40% 1 18.11.2026 -
Cheveyo Tsawa Club Brugge Ativo 103 / 133 40% 1 18.11.2026 -
Isaac Kyereh Liberty Professionals Ativo 105 / 127 40% 1 13.11.2026 -
Artem Slesar Zorya Ativo 106 / 122 40% 2 12.11.2026 -
Jayden Addai Como Ativo 132 / 140 40% 2 12.11.2026 -
Tomás Aranda Boca Juniors Ativo 94 / 114 40% 1 04.11.2026 -
Philippe Ndinga Philadelphia Union Ativo 109 / 109 40% 1 04.11.2026 -
Ramiro Hernandes Belgrano Ativo 118 / 116 40% 2 02.11.2026 -
Juan Velázquez Belgrano Ativo 138 / 129 40% 1 01.11.2026 -
Mfundo Vilakazi Kaizer Chiefs Ativo 120 / 111 40% 1 28.10.2026 -
Oscar Schwartau Norwich City Ativo 131 / 137 40% 1 22.10.2026 -
Edvin Austbø West Ham United Ativo 120 / 127 40% 1 20.10.2026 -
Rocco Vata Watford Ativo 130 / 123 40% 1 19.10.2026 -
Sidiki Chérif Coventry City Ativo 128 / 133 40% 1 18.10.2026 -
Corrado Riviera Renate Ativo 104 / 101 40% 1 14.10.2026 -
Severin Nioule Charleroi Ativo 102 / 99 40% 1 13.10.2026 -
Leo Castledine Middlesbrough Ativo 136 / 136 40% 1 13.10.2026 -
Juan Cruz Meza River Plate Ativo 105 / 121 40% 1 12.10.2026 -
Montader Madjed Hammarby Ativo 121 / 132 40% 1 11.10.2026 -
Chris Lokesa Waasland-Beveren Ativo 116 / 119 40% 1 10.10.2026 -
Axel Frugone Defensor Sporting Ativo 95 / 111 40% 1 06.10.2026 -
Salvatore Caturano Ativo 114 / 122 51% 1 31.08.2026 -
Elías Báez Atlanta United FC Ativo 104 / 140 40% 1 10.08.2026 -
Breel Embolo Atlanta United FC Ativo 125 / 146 40% 1 01.08.2026 -